sensor_id;sensor_type;location;lat;lon;timestamp;temperature;humidity
43671;DHT22;29267;50.906;7.248;2024-03-08T00:00:34;2.50;99.90
43671;DHT22;29267;50.906;7.248;2024-03-08T00:03:00;2.50;99.90
43671;DHT22;29267;50.906;7.248;2024-03-08T00:05:27;2.50;99.90
43671;DHT22;29267;50.906;7.248;2024-03-08T00:07:53;2.40;99.90
43671;DHT22;29267;50.906;7.248;2024-03-08T00:10:18;2.30;99.90
43671;DHT22;29267;50.906;7.248;2024-03-08T00:12:46;2.30;99.90
43671;DHT22;29267;50.906;7.248;2024-03-08T00:15:13;2.30;99.90
43671;DHT22;29267;50.906;7.248;2024-03-08T00:17:43;2.40;99.90
43671;DHT22;29267;50.906;7.248;2024-03-08T00:20:10;2.40;99.90
43671;DHT22;29267;50.906;7.248;2024-03-08T00:22:36;2.40;99.90
43671;DHT22;29267;50.906;7.248;2024-03-08T00:25:02;2.30;99.90
43671;DHT22;29267;50.906;7.248;2024-03-08T00:27:28;2.30;99.90
43671;DHT22;29267;50.906;7.248;2024-03-08T00:29:56;2.30;99.90
43671;DHT22;29267;50.906;7.248;2024-03-08T00:32:21;2.30;99.90
43671;DHT22;29267;50.906;7.248;2024-03-08T00:34:49;2.20;99.90
43671;DHT22;29267;50.906;7.248;2024-03-08T00:37:17;2.20;99.90
43671;DHT22;29267;50.906;7.248;2024-03-08T00:39:43;2.20;99.90
43671;DHT22;29267;50.906;7.248;2024-03-08T00:42:09;2.10;99.90
43671;DHT22;29267;50.906;7.248;2024-03-08T00:44:34;2.10;99.90
43671;DHT22;29267;50.906;7.248;2024-03-08T00:47:00;2.10;99.90
43671;DHT22;29267;50.906;7.248;2024-03-08T00:49:25;2.10;99.90
43671;DHT22;29267;50.906;7.248;2024-03-08T00:51:51;2.10;99.90
43671;DHT22;29267;50.906;7.248;2024-03-08T00:54:16;2.10;99.90
43671;DHT22;29267;50.906;7.248;2024-03-08T00:56:42;2.10;99.90
43671;DHT22;29267;50.906;7.248;2024-03-08T00:59:08;2.00;99.90
43671;DHT22;29267;50.906;7.248;2024-03-08T01:01:33;2.10;99.90
43671;DHT22;29267;50.906;7.248;2024-03-08T01:03:59;2.10;99.90
43671;DHT22;29267;50.906;7.248;2024-03-08T01:06:25;2.10;99.90
43671;DHT22;29267;50.906;7.248;2024-03-08T01:08:50;2.10;99.90
43671;DHT22;29267;50.906;7.248;2024-03-08T01:11:17;2.20;99.90
43671;DHT22;29267;50.906;7.248;2024-03-08T01:13:43;2.10;99.90
43671;DHT22;29267;50.906;7.248;2024-03-08T01:16:09;2.10;99.90
43671;DHT22;29267;50.906;7.248;2024-03-08T01:18:35;2.10;99.90
43671;DHT22;29267;50.906;7.248;2024-03-08T01:21:01;2.10;99.90
43671;DHT22;29267;50.906;7.248;2024-03-08T01:23:26;2.20;99.90
43671;DHT22;29267;50.906;7.248;2024-03-08T01:25:52;2.20;99.90
43671;DHT22;29267;50.906;7.248;2024-03-08T01:28:23;2.30;99.90
43671;DHT22;29267;50.906;7.248;2024-03-08T01:30:49;2.30;99.90
43671;DHT22;29267;50.906;7.248;2024-03-08T01:33:21;2.20;99.90
43671;DHT22;29267;50.906;7.248;2024-03-08T01:35:48;2.20;99.90
43671;DHT22;29267;50.906;7.248;2024-03-08T01:38:13;2.20;99.90
43671;DHT22;29267;50.906;7.248;2024-03-08T01:40:39;2.20;99.90
43671;DHT22;29267;50.906;7.248;2024-03-08T01:43:25;2.20;99.90
43671;DHT22;29267;50.906;7.248;2024-03-08T01:45:53;2.10;99.90
43671;DHT22;29267;50.906;7.248;2024-03-08T01:48:19;2.20;99.90
43671;DHT22;29267;50.906;7.248;2024-03-08T01:50:49;2.10;99.90
43671;DHT22;29267;50.906;7.248;2024-03-08T01:53:15;2.10;99.90
43671;DHT22;29267;50.906;7.248;2024-03-08T01:55:47;2.10;99.90
43671;DHT22;29267;50.906;7.248;2024-03-08T01:58:13;2.10;99.90
43671;DHT22;29267;50.906;7.248;2024-03-08T02:00:43;2.10;99.90
43671;DHT22;29267;50.906;7.248;2024-03-08T02:03:11;2.10;99.90
43671;DHT22;29267;50.906;7.248;2024-03-08T02:05:37;2.10;99.90
43671;DHT22;29267;50.906;7.248;2024-03-08T02:08:04;2.10;99.90
43671;DHT22;29267;50.906;7.248;2024-03-08T02:10:35;2.00;99.90
43671;DHT22;29267;50.906;7.248;2024-03-08T02:13:03;2.00;99.90
43671;DHT22;29267;50.906;7.248;2024-03-08T02:18:20;1.90;99.90
43671;DHT22;29267;50.906;7.248;2024-03-08T02:20:51;2.00;99.90
43671;DHT22;29267;50.906;7.248;2024-03-08T02:23:17;2.00;99.90
43671;DHT22;29267;50.906;7.248;2024-03-08T02:25:44;2.00;99.90
43671;DHT22;29267;50.906;7.248;2024-03-08T02:28:11;2.00;99.90
43671;DHT22;29267;50.906;7.248;2024-03-08T02:30:37;1.90;99.90
43671;DHT22;29267;50.906;7.248;2024-03-08T02:33:07;1.90;99.90
43671;DHT22;29267;50.906;7.248;2024-03-08T02:35:33;1.90;99.90
43671;DHT22;29267;50.906;7.248;2024-03-08T02:37:59;1.90;99.90
43671;DHT22;29267;50.906;7.248;2024-03-08T02:40:25;1.90;99.90
43671;DHT22;29267;50.906;7.248;2024-03-08T02:42:51;1.90;99.90
43671;DHT22;29267;50.906;7.248;2024-03-08T02:45:17;1.90;99.90
43671;DHT22;29267;50.906;7.248;2024-03-08T02:47:42;1.90;99.90
43671;DHT22;29267;50.906;7.248;2024-03-08T02:50:08;1.90;99.90
43671;DHT22;29267;50.906;7.248;2024-03-08T02:52:34;1.80;99.90
43671;DHT22;29267;50.906;7.248;2024-03-08T02:55:01;1.80;99.90
43671;DHT22;29267;50.906;7.248;2024-03-08T02:57:27;1.80;99.90
43671;DHT22;29267;50.906;7.248;2024-03-08T02:59:53;1.80;99.90
43671;DHT22;29267;50.906;7.248;2024-03-08T03:02:19;1.70;99.90
43671;DHT22;29267;50.906;7.248;2024-03-08T03:04:45;1.70;99.90
43671;DHT22;29267;50.906;7.248;2024-03-08T03:07:10;1.60;99.90
43671;DHT22;29267;50.906;7.248;2024-03-08T03:09:36;1.60;99.90
43671;DHT22;29267;50.906;7.248;2024-03-08T03:12:02;1.60;99.90
43671;DHT22;29267;50.906;7.248;2024-03-08T03:14:28;1.70;99.90
43671;DHT22;29267;50.906;7.248;2024-03-08T03:16:54;1.70;99.90
43671;DHT22;29267;50.906;7.248;2024-03-08T03:19:20;1.70;99.90
43671;DHT22;29267;50.906;7.248;2024-03-08T03:21:46;1.70;99.90
43671;DHT22;29267;50.906;7.248;2024-03-08T03:24:12;1.70;99.90
43671;DHT22;29267;50.906;7.248;2024-03-08T03:26:41;1.70;99.90
43671;DHT22;29267;50.906;7.248;2024-03-08T03:29:08;1.70;99.90
43671;DHT22;29267;50.906;7.248;2024-03-08T03:31:37;1.80;99.90
43671;DHT22;29267;50.906;7.248;2024-03-08T03:34:02;1.70;99.90
43671;DHT22;29267;50.906;7.248;2024-03-08T03:36:31;1.70;99.90
43671;DHT22;29267;50.906;7.248;2024-03-08T03:38:57;1.70;99.90
43671;DHT22;29267;50.906;7.248;2024-03-08T03:41:35;1.70;99.90
43671;DHT22;29267;50.906;7.248;2024-03-08T03:44:00;1.70;99.90
43671;DHT22;29267;50.906;7.248;2024-03-08T03:46:26;1.70;99.90
43671;DHT22;29267;50.906;7.248;2024-03-08T03:48:53;1.70;99.90
43671;DHT22;29267;50.906;7.248;2024-03-08T03:51:19;1.70;99.90
43671;DHT22;29267;50.906;7.248;2024-03-08T03:53:46;1.70;99.90
43671;DHT22;29267;50.906;7.248;2024-03-08T03:56:12;1.60;99.90
43671;DHT22;29267;50.906;7.248;2024-03-08T03:58:37;1.70;99.90
43671;DHT22;29267;50.906;7.248;2024-03-08T04:01:06;1.70;99.90
43671;DHT22;29267;50.906;7.248;2024-03-08T04:03:32;1.70;99.90
43671;DHT22;29267;50.906;7.248;2024-03-08T04:05:57;1.70;99.90
43671;DHT22;29267;50.906;7.248;2024-03-08T04:08:23;1.70;99.90
43671;DHT22;29267;50.906;7.248;2024-03-08T04:10:51;1.70;99.90
43671;DHT22;29267;50.906;7.248;2024-03-08T04:13:17;1.60;99.90
43671;DHT22;29267;50.906;7.248;2024-03-08T04:15:42;1.50;99.90
43671;DHT22;29267;50.906;7.248;2024-03-08T04:18:13;1.50;99.90
43671;DHT22;29267;50.906;7.248;2024-03-08T04:20:39;1.50;99.90
43671;DHT22;29267;50.906;7.248;2024-03-08T04:23:05;1.60;99.90
43671;DHT22;29267;50.906;7.248;2024-03-08T04:25:31;1.50;99.90
43671;DHT22;29267;50.906;7.248;2024-03-08T04:27:57;1.50;99.90
43671;DHT22;29267;50.906;7.248;2024-03-08T04:30:23;1.60;99.90
43671;DHT22;29267;50.906;7.248;2024-03-08T04:32:49;1.60;99.90
43671;DHT22;29267;50.906;7.248;2024-03-08T04:35:15;1.60;99.90
43671;DHT22;29267;50.906;7.248;2024-03-08T04:37:40;1.60;99.90
43671;DHT22;29267;50.906;7.248;2024-03-08T04:40:07;1.50;99.90
43671;DHT22;29267;50.906;7.248;2024-03-08T04:42:33;1.50;99.90
43671;DHT22;29267;50.906;7.248;2024-03-08T04:45:00;1.50;99.90
43671;DHT22;29267;50.906;7.248;2024-03-08T04:47:26;1.40;99.90
43671;DHT22;29267;50.906;7.248;2024-03-08T04:49:51;1.40;99.90
43671;DHT22;29267;50.906;7.248;2024-03-08T04:52:17;1.40;99.90
43671;DHT22;29267;50.906;7.248;2024-03-08T04:54:43;1.40;99.90
43671;DHT22;29267;50.906;7.248;2024-03-08T04:57:10;1.40;99.90
43671;DHT22;29267;50.906;7.248;2024-03-08T04:59:36;1.40;99.90
43671;DHT22;29267;50.906;7.248;2024-03-08T05:02:02;1.40;99.90
43671;DHT22;29267;50.906;7.248;2024-03-08T05:04:27;1.40;99.90
43671;DHT22;29267;50.906;7.248;2024-03-08T05:06:54;1.40;99.90
43671;DHT22;29267;50.906;7.248;2024-03-08T05:09:20;1.40;99.90
43671;DHT22;29267;50.906;7.248;2024-03-08T05:11:46;1.40;99.90
43671;DHT22;29267;50.906;7.248;2024-03-08T05:14:13;1.40;99.90
43671;DHT22;29267;50.906;7.248;2024-03-08T05:16:46;1.40;99.90
43671;DHT22;29267;50.906;7.248;2024-03-08T05:19:15;1.40;99.90
43671;DHT22;29267;50.906;7.248;2024-03-08T05:21:45;1.30;99.90
43671;DHT22;29267;50.906;7.248;2024-03-08T05:24:11;1.40;99.90
43671;DHT22;29267;50.906;7.248;2024-03-08T05:26:36;1.40;99.90
43671;DHT22;29267;50.906;7.248;2024-03-08T05:29:05;1.40;99.90
43671;DHT22;29267;50.906;7.248;2024-03-08T05:31:42;1.40;99.90
43671;DHT22;29267;50.906;7.248;2024-03-08T05:34:10;1.30;99.90
43671;DHT22;29267;50.906;7.248;2024-03-08T05:36:36;1.30;99.90
43671;DHT22;29267;50.906;7.248;2024-03-08T05:39:02;1.40;99.90
43671;DHT22;29267;50.906;7.248;2024-03-08T05:41:27;1.40;99.90
43671;DHT22;29267;50.906;7.248;2024-03-08T05:43:53;1.30;99.90
43671;DHT22;29267;50.906;7.248;2024-03-08T05:46:19;1.30;99.90
43671;DHT22;29267;50.906;7.248;2024-03-08T05:48:44;1.30;99.90
43671;DHT22;29267;50.906;7.248;2024-03-08T05:51:10;1.30;99.90
43671;DHT22;29267;50.906;7.248;2024-03-08T05:53:36;1.30;99.90
43671;DHT22;29267;50.906;7.248;2024-03-08T05:56:01;1.30;99.90
43671;DHT22;29267;50.906;7.248;2024-03-08T05:58:27;1.40;99.90
43671;DHT22;29267;50.906;7.248;2024-03-08T06:00:55;1.30;99.90
43671;DHT22;29267;50.906;7.248;2024-03-08T06:03:21;1.40;99.90
43671;DHT22;29267;50.906;7.248;2024-03-08T06:05:48;1.30;99.90
43671;DHT22;29267;50.906;7.248;2024-03-08T06:08:14;1.30;99.90
43671;DHT22;29267;50.906;7.248;2024-03-08T06:10:40;1.40;99.90
43671;DHT22;29267;50.906;7.248;2024-03-08T06:13:06;1.40;99.90
43671;DHT22;29267;50.906;7.248;2024-03-08T06:15:32;1.50;99.90
43671;DHT22;29267;50.906;7.248;2024-03-08T06:17:57;1.50;99.90
43671;DHT22;29267;50.906;7.248;2024-03-08T06:20:23;1.50;99.90
43671;DHT22;29267;50.906;7.248;2024-03-08T06:22:51;1.50;99.90
43671;DHT22;29267;50.906;7.248;2024-03-08T06:25:17;1.50;99.90
43671;DHT22;29267;50.906;7.248;2024-03-08T06:27:44;1.50;99.90
43671;DHT22;29267;50.906;7.248;2024-03-08T06:30:11;1.60;99.90
43671;DHT22;29267;50.906;7.248;2024-03-08T06:32:37;1.60;99.90
43671;DHT22;29267;50.906;7.248;2024-03-08T06:35:06;1.70;99.90
43671;DHT22;29267;50.906;7.248;2024-03-08T06:37:35;1.80;99.90
43671;DHT22;29267;50.906;7.248;2024-03-08T06:40:01;1.90;99.90
43671;DHT22;29267;50.906;7.248;2024-03-08T06:42:27;1.90;99.90
43671;DHT22;29267;50.906;7.248;2024-03-08T06:44:53;2.00;99.90
43671;DHT22;29267;50.906;7.248;2024-03-08T06:47:21;2.00;99.90
43671;DHT22;29267;50.906;7.248;2024-03-08T06:49:48;2.10;99.90
43671;DHT22;29267;50.906;7.248;2024-03-08T06:52:14;2.10;99.90
43671;DHT22;29267;50.906;7.248;2024-03-08T06:54:40;2.20;99.90
43671;DHT22;29267;50.906;7.248;2024-03-08T06:57:06;2.30;99.90
43671;DHT22;29267;50.906;7.248;2024-03-08T06:59:32;2.40;99.90
43671;DHT22;29267;50.906;7.248;2024-03-08T07:01:58;2.50;99.90
43671;DHT22;29267;50.906;7.248;2024-03-08T07:04:25;2.60;99.90
43671;DHT22;29267;50.906;7.248;2024-03-08T07:06:57;2.70;99.90
43671;DHT22;29267;50.906;7.248;2024-03-08T07:09:26;2.80;99.90
43671;DHT22;29267;50.906;7.248;2024-03-08T07:11:51;2.90;99.90
43671;DHT22;29267;50.906;7.248;2024-03-08T07:14:24;3.00;99.90
43671;DHT22;29267;50.906;7.248;2024-03-08T07:16:50;3.40;99.90
43671;DHT22;29267;50.906;7.248;2024-03-08T07:19:16;3.80;99.90
43671;DHT22;29267;50.906;7.248;2024-03-08T07:21:45;3.80;99.90
43671;DHT22;29267;50.906;7.248;2024-03-08T07:24:13;3.80;99.90
43671;DHT22;29267;50.906;7.248;2024-03-08T07:26:53;3.70;99.90
43671;DHT22;29267;50.906;7.248;2024-03-08T07:29:21;3.70;99.90
43671;DHT22;29267;50.906;7.248;2024-03-08T07:31:46;3.60;99.90
43671;DHT22;29267;50.906;7.248;2024-03-08T07:34:30;3.60;99.90
43671;DHT22;29267;50.906;7.248;2024-03-08T07:36:57;3.70;99.90
43671;DHT22;29267;50.906;7.248;2024-03-08T07:39:23;3.70;99.90
43671;DHT22;29267;50.906;7.248;2024-03-08T07:41:50;3.70;99.90
43671;DHT22;29267;50.906;7.248;2024-03-08T07:44:18;3.80;99.90
43671;DHT22;29267;50.906;7.248;2024-03-08T07:46:44;3.80;99.90
43671;DHT22;29267;50.906;7.248;2024-03-08T07:49:10;3.90;99.90
43671;DHT22;29267;50.906;7.248;2024-03-08T07:51:37;3.90;99.90
43671;DHT22;29267;50.906;7.248;2024-03-08T07:54:04;4.00;99.90
43671;DHT22;29267;50.906;7.248;2024-03-08T07:56:34;4.00;99.90
43671;DHT22;29267;50.906;7.248;2024-03-08T07:59:02;4.00;99.90
43671;DHT22;29267;50.906;7.248;2024-03-08T08:01:29;4.00;99.90
43671;DHT22;29267;50.906;7.248;2024-03-08T08:03:56;4.10;99.90
43671;DHT22;29267;50.906;7.248;2024-03-08T08:06:22;4.20;99.90
43671;DHT22;29267;50.906;7.248;2024-03-08T08:08:48;4.30;99.90
43671;DHT22;29267;50.906;7.248;2024-03-08T08:11:13;4.30;99.90
43671;DHT22;29267;50.906;7.248;2024-03-08T08:13:42;4.30;99.90
43671;DHT22;29267;50.906;7.248;2024-03-08T08:16:09;4.40;99.90
43671;DHT22;29267;50.906;7.248;2024-03-08T08:18:36;4.40;99.90
43671;DHT22;29267;50.906;7.248;2024-03-08T08:21:05;4.50;99.90
43671;DHT22;29267;50.906;7.248;2024-03-08T08:23:34;4.60;99.90
43671;DHT22;29267;50.906;7.248;2024-03-08T08:26:00;4.60;99.90
43671;DHT22;29267;50.906;7.248;2024-03-08T08:28:26;4.70;99.90
43671;DHT22;29267;50.906;7.248;2024-03-08T08:30:52;4.70;99.90
43671;DHT22;29267;50.906;7.248;2024-03-08T08:33:18;4.80;99.90
43671;DHT22;29267;50.906;7.248;2024-03-08T08:35:43;4.90;99.90
43671;DHT22;29267;50.906;7.248;2024-03-08T08:38:09;5.00;99.90
43671;DHT22;29267;50.906;7.248;2024-03-08T08:40:35;5.10;99.90
43671;DHT22;29267;50.906;7.248;2024-03-08T08:43:02;5.20;99.90
43671;DHT22;29267;50.906;7.248;2024-03-08T08:45:31;5.10;99.90
43671;DHT22;29267;50.906;7.248;2024-03-08T08:47:57;5.20;99.90
43671;DHT22;29267;50.906;7.248;2024-03-08T08:50:25;5.30;99.90
43671;DHT22;29267;50.906;7.248;2024-03-08T08:52:52;5.40;99.90
43671;DHT22;29267;50.906;7.248;2024-03-08T08:55:18;5.40;99.90
43671;DHT22;29267;50.906;7.248;2024-03-08T08:57:49;5.50;99.90
43671;DHT22;29267;50.906;7.248;2024-03-08T09:00:16;5.50;99.90
43671;DHT22;29267;50.906;7.248;2024-03-08T09:02:42;5.60;99.90
43671;DHT22;29267;50.906;7.248;2024-03-08T09:05:07;5.80;99.90
43671;DHT22;29267;50.906;7.248;2024-03-08T09:07:33;5.90;99.90
43671;DHT22;29267;50.906;7.248;2024-03-08T09:10:00;6.00;99.90
43671;DHT22;29267;50.906;7.248;2024-03-08T09:12:26;6.20;99.90
43671;DHT22;29267;50.906;7.248;2024-03-08T09:14:51;6.30;99.90
43671;DHT22;29267;50.906;7.248;2024-03-08T09:17:17;6.40;99.90
43671;DHT22;29267;50.906;7.248;2024-03-08T09:19:49;6.40;99.90
43671;DHT22;29267;50.906;7.248;2024-03-08T09:22:15;6.90;99.90
43671;DHT22;29267;50.906;7.248;2024-03-08T09:24:40;7.60;99.90
43671;DHT22;29267;50.906;7.248;2024-03-08T09:27:07;8.00;99.90
43671;DHT22;29267;50.906;7.248;2024-03-08T09:29:35;8.70;99.90
43671;DHT22;29267;50.906;7.248;2024-03-08T09:32:01;9.10;99.90
43671;DHT22;29267;50.906;7.248;2024-03-08T09:34:26;9.10;99.90
43671;DHT22;29267;50.906;7.248;2024-03-08T09:36:52;9.60;99.90
43671;DHT22;29267;50.906;7.248;2024-03-08T09:39:18;9.90;99.60
43671;DHT22;29267;50.906;7.248;2024-03-08T09:41:46;9.90;99.00
43671;DHT22;29267;50.906;7.248;2024-03-08T09:44:17;10.30;99.50
43671;DHT22;29267;50.906;7.248;2024-03-08T09:46:45;10.60;98.50
43671;DHT22;29267;50.906;7.248;2024-03-08T09:49:13;10.60;98.00
43671;DHT22;29267;50.906;7.248;2024-03-08T09:51:38;10.90;98.10
43671;DHT22;29267;50.906;7.248;2024-03-08T09:54:06;10.70;97.00
43671;DHT22;29267;50.906;7.248;2024-03-08T09:56:35;10.80;97.40
43671;DHT22;29267;50.906;7.248;2024-03-08T09:59:02;10.60;97.20
43671;DHT22;29267;50.906;7.248;2024-03-08T10:01:37;10.70;96.90
43671;DHT22;29267;50.906;7.248;2024-03-08T10:04:04;10.70;96.40
43671;DHT22;29267;50.906;7.248;2024-03-08T10:06:29;10.60;97.40
43671;DHT22;29267;50.906;7.248;2024-03-08T10:08:56;10.70;97.20
43671;DHT22;29267;50.906;7.248;2024-03-08T10:11:22;10.60;96.90
43671;DHT22;29267;50.906;7.248;2024-03-08T10:13:49;10.90;96.50
43671;DHT22;29267;50.906;7.248;2024-03-08T10:16:15;10.50;96.30
43671;DHT22;29267;50.906;7.248;2024-03-08T10:18:42;10.50;96.20
43671;DHT22;29267;50.906;7.248;2024-03-08T10:21:09;10.60;97.10
43671;DHT22;29267;50.906;7.248;2024-03-08T10:23:39;10.40;97.30
43671;DHT22;29267;50.906;7.248;2024-03-08T10:26:15;10.30;98.00
43671;DHT22;29267;50.906;7.248;2024-03-08T10:28:45;10.20;97.00
43671;DHT22;29267;50.906;7.248;2024-03-08T10:31:13;10.10;96.60
43671;DHT22;29267;50.906;7.248;2024-03-08T10:33:40;10.00;97.10
43671;DHT22;29267;50.906;7.248;2024-03-08T10:36:07;9.70;97.30
43671;DHT22;29267;50.906;7.248;2024-03-08T10:38:36;9.60;96.80
43671;DHT22;29267;50.906;7.248;2024-03-08T10:41:03;9.60;96.80
43671;DHT22;29267;50.906;7.248;2024-03-08T10:43:33;9.40;96.80
43671;DHT22;29267;50.906;7.248;2024-03-08T10:46:19;9.30;96.90
43671;DHT22;29267;50.906;7.248;2024-03-08T10:48:49;9.40;97.80
43671;DHT22;29267;50.906;7.248;2024-03-08T10:51:15;9.40;97.20
43671;DHT22;29267;50.906;7.248;2024-03-08T10:53:41;9.40;97.20
43671;DHT22;29267;50.906;7.248;2024-03-08T10:56:08;9.40;97.30
43671;DHT22;29267;50.906;7.248;2024-03-08T10:58:36;9.40;96.60
43671;DHT22;29267;50.906;7.248;2024-03-08T11:01:03;9.40;97.70
43671;DHT22;29267;50.906;7.248;2024-03-08T11:06:08;9.50;97.20
43671;DHT22;29267;50.906;7.248;2024-03-08T11:08:36;9.60;96.90
43671;DHT22;29267;50.906;7.248;2024-03-08T11:11:02;9.70;97.50
43671;DHT22;29267;50.906;7.248;2024-03-08T11:13:41;9.70;96.90
43671;DHT22;29267;50.906;7.248;2024-03-08T11:16:11;9.80;97.10
43671;DHT22;29267;50.906;7.248;2024-03-08T11:18:37;9.90;97.00
43671;DHT22;29267;50.906;7.248;2024-03-08T11:21:04;9.80;95.40
43671;DHT22;29267;50.906;7.248;2024-03-08T11:23:32;9.80;96.80
43671;DHT22;29267;50.906;7.248;2024-03-08T11:25:59;9.80;96.50
43671;DHT22;29267;50.906;7.248;2024-03-08T11:28:25;9.90;95.80
43671;DHT22;29267;50.906;7.248;2024-03-08T11:33:30;10.00;96.80
43671;DHT22;29267;50.906;7.248;2024-03-08T11:38:44;10.20;95.70
43671;DHT22;29267;50.906;7.248;2024-03-08T11:41:20;10.20;96.10
43671;DHT22;29267;50.906;7.248;2024-03-08T11:43:47;10.20;96.20
43671;DHT22;29267;50.906;7.248;2024-03-08T11:46:13;10.30;95.90
43671;DHT22;29267;50.906;7.248;2024-03-08T11:48:43;10.20;94.60
43671;DHT22;29267;50.906;7.248;2024-03-08T11:51:10;10.10;95.20
43671;DHT22;29267;50.906;7.248;2024-03-08T11:53:37;10.20;95.50
43671;DHT22;29267;50.906;7.248;2024-03-08T11:56:08;10.10;94.90
43671;DHT22;29267;50.906;7.248;2024-03-08T11:58:34;10.00;95.30
43671;DHT22;29267;50.906;7.248;2024-03-08T12:01:06;10.10;95.70
43671;DHT22;29267;50.906;7.248;2024-03-08T12:03:32;10.10;94.80
43671;DHT22;29267;50.906;7.248;2024-03-08T12:06:01;10.00;95.50
43671;DHT22;29267;50.906;7.248;2024-03-08T12:08:30;10.00;95.90
43671;DHT22;29267;50.906;7.248;2024-03-08T12:10:56;10.00;95.20
43671;DHT22;29267;50.906;7.248;2024-03-08T12:13:30;10.00;95.40
43671;DHT22;29267;50.906;7.248;2024-03-08T12:15:57;10.00;95.20
43671;DHT22;29267;50.906;7.248;2024-03-08T12:18:25;10.00;95.10
43671;DHT22;29267;50.906;7.248;2024-03-08T12:20:51;9.90;95.70
43671;DHT22;29267;50.906;7.248;2024-03-08T12:23:18;10.00;95.50
43671;DHT22;29267;50.906;7.248;2024-03-08T12:25:43;10.00;95.80
43671;DHT22;29267;50.906;7.248;2024-03-08T12:28:09;10.10;95.90
43671;DHT22;29267;50.906;7.248;2024-03-08T12:30:50;10.10;95.20
43671;DHT22;29267;50.906;7.248;2024-03-08T12:33:18;10.10;95.90
43671;DHT22;29267;50.906;7.248;2024-03-08T12:35:51;10.20;95.70
43671;DHT22;29267;50.906;7.248;2024-03-08T12:38:19;10.10;95.60
43671;DHT22;29267;50.906;7.248;2024-03-08T12:40:49;10.20;95.30
43671;DHT22;29267;50.906;7.248;2024-03-08T12:43:15;10.20;95.50
43671;DHT22;29267;50.906;7.248;2024-03-08T12:45:41;10.20;95.50
43671;DHT22;29267;50.906;7.248;2024-03-08T12:48:12;10.20;94.80
43671;DHT22;29267;50.906;7.248;2024-03-08T12:50:41;10.20;94.50
43671;DHT22;29267;50.906;7.248;2024-03-08T12:53:09;10.10;94.70
43671;DHT22;29267;50.906;7.248;2024-03-08T12:55:34;10.10;94.50
43671;DHT22;29267;50.906;7.248;2024-03-08T12:58:00;10.00;94.80
43671;DHT22;29267;50.906;7.248;2024-03-08T13:00:26;10.10;94.80
43671;DHT22;29267;50.906;7.248;2024-03-08T13:02:53;10.10;95.10
43671;DHT22;29267;50.906;7.248;2024-03-08T13:05:19;10.10;95.60
43671;DHT22;29267;50.906;7.248;2024-03-08T13:07:45;10.10;95.50
43671;DHT22;29267;50.906;7.248;2024-03-08T13:10:16;10.10;95.10
43671;DHT22;29267;50.906;7.248;2024-03-08T13:12:45;10.10;94.70
43671;DHT22;29267;50.906;7.248;2024-03-08T13:15:11;10.10;94.30
43671;DHT22;29267;50.906;7.248;2024-03-08T13:17:41;10.10;94.70
43671;DHT22;29267;50.906;7.248;2024-03-08T13:20:08;10.20;95.30
43671;DHT22;29267;50.906;7.248;2024-03-08T13:22:34;10.20;95.90
43671;DHT22;29267;50.906;7.248;2024-03-08T13:25:00;10.20;94.80
43671;DHT22;29267;50.906;7.248;2024-03-08T13:27:27;10.20;95.20
43671;DHT22;29267;50.906;7.248;2024-03-08T13:29:53;10.20;94.80
43671;DHT22;29267;50.906;7.248;2024-03-08T13:32:19;10.20;94.80
43671;DHT22;29267;50.906;7.248;2024-03-08T13:34:46;10.20;95.20
43671;DHT22;29267;50.906;7.248;2024-03-08T13:37:13;10.20;95.20
43671;DHT22;29267;50.906;7.248;2024-03-08T13:39:41;10.20;94.70
43671;DHT22;29267;50.906;7.248;2024-03-08T13:42:15;10.30;95.00
43671;DHT22;29267;50.906;7.248;2024-03-08T13:44:45;10.30;95.50
43671;DHT22;29267;50.906;7.248;2024-03-08T13:47:15;10.30;95.50
43671;DHT22;29267;50.906;7.248;2024-03-08T13:49:42;10.30;95.70
43671;DHT22;29267;50.906;7.248;2024-03-08T13:52:09;10.20;96.30
43671;DHT22;29267;50.906;7.248;2024-03-08T13:54:36;10.30;95.60
43671;DHT22;29267;50.906;7.248;2024-03-08T13:57:02;10.30;94.90
43671;DHT22;29267;50.906;7.248;2024-03-08T13:59:30;10.30;95.60
43671;DHT22;29267;50.906;7.248;2024-03-08T14:01:59;10.40;96.30
43671;DHT22;29267;50.906;7.248;2024-03-08T14:04:25;10.30;95.90
43671;DHT22;29267;50.906;7.248;2024-03-08T14:06:52;10.20;96.40
43671;DHT22;29267;50.906;7.248;2024-03-08T14:09:21;10.20;96.30
43671;DHT22;29267;50.906;7.248;2024-03-08T14:11:52;10.20;95.90
43671;DHT22;29267;50.906;7.248;2024-03-08T14:14:22;10.20;96.30
43671;DHT22;29267;50.906;7.248;2024-03-08T14:16:49;10.20;96.20
43671;DHT22;29267;50.906;7.248;2024-03-08T14:19:18;10.30;96.10
43671;DHT22;29267;50.906;7.248;2024-03-08T14:21:44;10.20;95.60
43671;DHT22;29267;50.906;7.248;2024-03-08T14:24:10;10.20;96.00
43671;DHT22;29267;50.906;7.248;2024-03-08T14:26:35;10.20;95.70
43671;DHT22;29267;50.906;7.248;2024-03-08T14:29:04;10.10;95.60
43671;DHT22;29267;50.906;7.248;2024-03-08T14:31:30;10.20;96.30
43671;DHT22;29267;50.906;7.248;2024-03-08T14:33:56;10.20;96.30
43671;DHT22;29267;50.906;7.248;2024-03-08T14:36:23;10.20;96.30
43671;DHT22;29267;50.906;7.248;2024-03-08T14:38:49;10.20;96.20
43671;DHT22;29267;50.906;7.248;2024-03-08T14:41:14;10.20;96.10
43671;DHT22;29267;50.906;7.248;2024-03-08T14:43:42;10.30;95.10
43671;DHT22;29267;50.906;7.248;2024-03-08T14:46:13;10.30;95.00
43671;DHT22;29267;50.906;7.248;2024-03-08T14:48:43;10.20;95.70
43671;DHT22;29267;50.906;7.248;2024-03-08T14:51:09;10.20;95.90
43671;DHT22;29267;50.906;7.248;2024-03-08T14:53:36;10.20;95.80
43671;DHT22;29267;50.906;7.248;2024-03-08T14:56:06;10.10;95.80
43671;DHT22;29267;50.906;7.248;2024-03-08T14:58:32;10.10;96.00
43671;DHT22;29267;50.906;7.248;2024-03-08T15:00:58;10.20;96.10
43671;DHT22;29267;50.906;7.248;2024-03-08T15:03:25;10.10;95.50
43671;DHT22;29267;50.906;7.248;2024-03-08T15:05:52;10.20;94.80
43671;DHT22;29267;50.906;7.248;2024-03-08T15:08:19;10.20;95.00
43671;DHT22;29267;50.906;7.248;2024-03-08T15:10:48;10.20;94.90
43671;DHT22;29267;50.906;7.248;2024-03-08T15:13:20;10.20;94.80
43671;DHT22;29267;50.906;7.248;2024-03-08T15:15:48;10.20;95.20
43671;DHT22;29267;50.906;7.248;2024-03-08T15:18:21;10.20;95.00
43671;DHT22;29267;50.906;7.248;2024-03-08T15:20:46;10.20;94.90
43671;DHT22;29267;50.906;7.248;2024-03-08T15:23:13;10.20;95.10
43671;DHT22;29267;50.906;7.248;2024-03-08T15:25:39;10.20;95.20
43671;DHT22;29267;50.906;7.248;2024-03-08T15:28:07;10.30;95.00
43671;DHT22;29267;50.906;7.248;2024-03-08T15:30:40;10.20;95.00
43671;DHT22;29267;50.906;7.248;2024-03-08T15:33:05;10.20;95.10
43671;DHT22;29267;50.906;7.248;2024-03-08T15:35:35;10.20;94.90
43671;DHT22;29267;50.906;7.248;2024-03-08T15:38:03;10.20;95.20
43671;DHT22;29267;50.906;7.248;2024-03-08T15:40:29;10.20;95.10
43671;DHT22;29267;50.906;7.248;2024-03-08T15:42:56;10.20;95.10
43671;DHT22;29267;50.906;7.248;2024-03-08T15:45:23;10.10;95.10
43671;DHT22;29267;50.906;7.248;2024-03-08T15:47:51;10.10;95.10
43671;DHT22;29267;50.906;7.248;2024-03-08T15:50:17;10.00;94.90